createdAt,value
2018-04-24T00:02:27.763Z,99.90
2018-04-24T00:04:55.935Z,99.90
2018-04-24T00:07:24.084Z,99.90
2018-04-24T00:09:52.334Z,99.90
2018-04-24T00:12:20.433Z,99.90
2018-04-24T00:14:48.605Z,99.90
2018-04-24T00:17:16.753Z,99.90
2018-04-24T00:19:44.926Z,99.90
2018-04-24T00:22:13.073Z,99.90
2018-04-24T00:24:41.247Z,99.90
2018-04-24T00:27:09.387Z,99.90
2018-04-24T00:29:37.559Z,99.90
2018-04-24T00:32:05.708Z,99.90
2018-04-24T00:34:33.877Z,99.90
2018-04-24T00:37:02.021Z,99.90
2018-04-24T00:39:30.197Z,99.90
2018-04-24T00:41:58.348Z,99.90
2018-04-24T00:44:26.519Z,99.90
2018-04-24T00:46:54.659Z,99.90
2018-04-24T00:49:22.828Z,99.90
2018-04-24T00:51:50.986Z,99.90
2018-04-24T00:54:19.161Z,99.90
2018-04-24T00:56:47.307Z,99.90
2018-04-24T00:59:15.480Z,99.90
2018-04-24T01:01:43.624Z,99.90
2018-04-24T01:04:11.791Z,99.90
2018-04-24T01:06:39.953Z,99.90
2018-04-24T01:09:08.125Z,99.90
2018-04-24T01:11:36.270Z,99.90
2018-04-24T01:14:04.450Z,99.90
2018-04-24T01:16:33.371Z,99.90
2018-04-24T01:19:01.540Z,99.90
2018-04-24T01:21:29.692Z,99.90
2018-04-24T01:23:57.856Z,99.90
2018-04-24T01:26:26.004Z,99.90
2018-04-24T01:28:54.199Z,99.90
2018-04-24T01:31:22.345Z,99.90
2018-04-24T01:33:50.492Z,99.90
2018-04-24T01:36:18.660Z,99.90
2018-04-24T01:38:46.807Z,99.90
2018-04-24T01:41:14.981Z,99.90
2018-04-24T01:43:43.134Z,99.90
2018-04-24T01:46:12.069Z,99.90
2018-04-24T01:48:40.218Z,99.90
2018-04-24T01:51:09.161Z,99.90
2018-04-24T01:53:37.312Z,99.90
2018-04-24T01:56:05.485Z,99.90
2018-04-24T01:58:33.630Z,99.90
2018-04-24T02:01:01.816Z,99.90
2018-04-24T02:03:29.975Z,99.90
2018-04-24T02:05:58.143Z,99.90
2018-04-24T02:08:26.340Z,99.90
2018-04-24T02:10:54.509Z,99.90
2018-04-24T02:13:22.657Z,99.90
2018-04-24T02:15:50.833Z,99.90
2018-04-24T02:18:19.744Z,99.90
2018-04-24T02:20:47.915Z,99.90
2018-04-24T02:23:16.064Z,99.90
2018-04-24T02:25:44.236Z,99.90
2018-04-24T02:28:12.384Z,99.90
2018-04-24T02:30:40.565Z,99.90
2018-04-24T02:33:08.728Z,99.90
2018-04-24T02:35:36.904Z,99.90
2018-04-24T02:38:05.061Z,99.90
2018-04-24T02:40:33.241Z,99.90
2018-04-24T02:43:01.388Z,99.90
2018-04-24T02:45:29.556Z,99.90
2018-04-24T02:47:57.704Z,99.90
2018-04-24T02:50:25.852Z,99.90
2018-04-24T02:52:54.033Z,99.90
2018-04-24T02:55:22.180Z,99.90
2018-04-24T02:57:50.364Z,99.90
2018-04-24T03:00:18.512Z,99.90
2018-04-24T03:02:46.682Z,99.90
2018-04-24T03:05:14.827Z,99.90
2018-04-24T03:07:43.011Z,99.90
2018-04-24T03:10:11.161Z,99.90
2018-04-24T03:12:39.335Z,99.90
2018-04-24T03:15:07.482Z,99.90
2018-04-24T03:17:35.661Z,99.90
2018-04-24T03:20:03.807Z,99.90
2018-04-24T03:22:31.982Z,99.90
2018-04-24T03:25:00.132Z,99.90
2018-04-24T03:27:28.304Z,99.90
2018-04-24T03:29:56.444Z,99.90
2018-04-24T03:32:24.624Z,99.90
2018-04-24T03:34:52.770Z,99.90
2018-04-24T03:37:20.940Z,99.90
2018-04-24T03:39:49.083Z,99.90
2018-04-24T03:42:17.256Z,99.90
2018-04-24T03:44:45.396Z,99.90
2018-04-24T03:47:14.336Z,99.90
2018-04-24T03:49:42.483Z,99.90
2018-04-24T03:52:10.660Z,99.90
2018-04-24T03:54:38.806Z,99.90
2018-04-24T03:57:06.978Z,99.90
2018-04-24T03:59:35.124Z,99.90
2018-04-24T04:02:03.301Z,99.90
2018-04-24T04:04:31.444Z,99.90
2018-04-24T04:06:59.612Z,99.90
2018-04-24T04:09:27.769Z,99.90
2018-04-24T04:11:55.946Z,99.90
2018-04-24T04:14:24.091Z,99.90
2018-04-24T04:16:52.263Z,99.90
2018-04-24T04:19:32.225Z,99.90
2018-04-24T04:22:12.840Z,99.90
2018-04-24T04:24:44.807Z,99.90
2018-04-24T04:27:13.835Z,99.90
2018-04-24T04:29:41.985Z,99.90
2018-04-24T04:32:10.176Z,99.90
2018-04-24T04:34:38.320Z,99.90
2018-04-24T04:37:06.464Z,99.90
2018-04-24T04:39:34.638Z,99.90
2018-04-24T04:42:02.776Z,99.90
2018-04-24T04:44:30.950Z,99.90
2018-04-24T04:46:59.100Z,99.90
2018-04-24T04:49:27.272Z,99.90
2018-04-24T04:51:55.425Z,99.90
2018-04-24T04:54:23.599Z,99.90
2018-04-24T04:56:51.735Z,99.90
2018-04-24T04:59:20.675Z,99.90
2018-04-24T05:01:48.835Z,99.90
2018-04-24T05:04:17.004Z,99.90
2018-04-24T05:06:45.153Z,99.90
2018-04-24T05:09:13.336Z,99.90
2018-04-24T05:11:42.243Z,99.90
2018-04-24T05:14:10.412Z,99.90
2018-04-24T05:16:38.781Z,99.90
2018-04-24T05:19:06.997Z,99.90
2018-04-24T05:21:35.152Z,99.90
2018-04-24T05:24:03.336Z,99.90
2018-04-24T05:26:31.562Z,99.90
2018-04-24T05:28:59.692Z,99.90
2018-04-24T05:31:27.840Z,99.90
2018-04-24T05:33:56.011Z,99.90
2018-04-24T05:36:24.167Z,99.90
2018-04-24T05:38:52.354Z,99.90
2018-04-24T05:41:20.500Z,99.90
2018-04-24T05:43:48.692Z,99.90
2018-04-24T05:46:16.839Z,99.90
2018-04-24T05:48:44.989Z,99.90
2018-04-24T05:51:13.176Z,99.90
2018-04-24T05:53:41.324Z,99.90
2018-04-24T05:56:09.497Z,99.90
2018-04-24T05:58:38.168Z,99.90
2018-04-24T06:01:06.344Z,99.90
2018-04-24T06:03:34.500Z,99.90
2018-04-24T06:06:02.682Z,99.90
2018-04-24T06:08:30.867Z,99.90
2018-04-24T06:10:59.037Z,99.90
2018-04-24T06:13:27.192Z,99.90
2018-04-24T06:15:55.373Z,99.90
2018-04-24T06:18:23.520Z,99.90
2018-04-24T06:20:51.698Z,99.90
2018-04-24T06:23:20.614Z,99.90
2018-04-24T06:25:48.792Z,99.90
2018-04-24T06:28:16.944Z,99.90
2018-04-24T06:30:45.132Z,99.90
2018-04-24T06:33:13.280Z,99.90
2018-04-24T06:35:42.226Z,99.90
2018-04-24T06:38:10.381Z,99.90
2018-04-24T06:40:38.555Z,99.90
2018-04-24T06:43:06.710Z,99.90
2018-04-24T06:45:34.908Z,99.90
2018-04-24T06:48:03.060Z,99.90
2018-04-24T06:50:31.239Z,99.90
2018-04-24T06:52:59.393Z,99.90
2018-04-24T06:55:28.496Z,99.90
2018-04-24T06:57:56.658Z,99.90
2018-04-24T07:00:24.831Z,99.90
2018-04-24T07:02:53.816Z,99.90
2018-04-24T07:05:22.028Z,99.90
2018-04-24T07:07:50.222Z,99.90
2018-04-24T07:10:18.399Z,99.90
2018-04-24T07:12:46.612Z,99.90
2018-04-24T07:15:14.785Z,99.90
2018-04-24T07:17:42.978Z,99.90
2018-04-24T07:20:11.145Z,99.90
2018-04-24T07:22:39.370Z,99.90
2018-04-24T07:25:07.531Z,99.90
2018-04-24T07:27:35.722Z,99.90
2018-04-24T07:30:03.877Z,99.90
2018-04-24T07:32:32.061Z,99.90
2018-04-24T07:35:00.213Z,99.90
2018-04-24T07:37:28.389Z,99.90
2018-04-24T07:39:56.544Z,99.90
2018-04-24T07:42:24.777Z,99.90
2018-04-24T07:44:52.959Z,99.90
2018-04-24T07:47:21.148Z,99.90
2018-04-24T07:49:49.375Z,99.90
2018-04-24T07:52:17.629Z,99.90
2018-04-24T07:54:45.883Z,99.80
2018-04-24T07:57:14.135Z,98.90
2018-04-24T07:59:42.331Z,99.40
2018-04-24T08:02:10.637Z,99.30
2018-04-24T08:04:38.805Z,99.50
2018-04-24T08:07:07.223Z,99.00
2018-04-24T08:09:35.464Z,99.90
2018-04-24T08:12:03.708Z,99.10
2018-04-24T08:14:31.984Z,99.70
2018-04-24T08:17:00.185Z,99.90
2018-04-24T08:19:28.453Z,99.50
2018-04-24T08:21:57.177Z,99.10
2018-04-24T08:24:25.378Z,99.30
2018-04-24T08:26:53.627Z,98.60
2018-04-24T08:29:21.825Z,99.40
2018-04-24T08:31:49.999Z,98.90
2018-04-24T08:34:18.214Z,98.80
2018-04-24T08:36:46.433Z,99.30
2018-04-24T08:39:14.644Z,99.60
2018-04-24T08:41:42.810Z,99.30
2018-04-24T08:44:11.013Z,99.80
2018-04-24T08:46:39.287Z,99.90
2018-04-24T08:49:08.260Z,99.90
2018-04-24T08:51:36.532Z,99.90
2018-04-24T08:54:04.747Z,99.90
2018-04-24T08:56:32.912Z,99.90
2018-04-24T08:59:01.380Z,99.90
2018-04-24T09:01:29.568Z,99.90
2018-04-24T09:03:57.768Z,99.90
2018-04-24T09:06:26.002Z,99.90
2018-04-24T09:08:55.010Z,99.90
2018-04-24T09:11:23.192Z,99.90
2018-04-24T09:13:51.530Z,99.90
2018-04-24T09:16:19.702Z,99.90
2018-04-24T09:18:47.905Z,99.90
2018-04-24T09:21:16.824Z,99.90
2018-04-24T09:23:45.003Z,99.90
2018-04-24T09:26:13.152Z,99.90
2018-04-24T09:28:41.374Z,99.90
2018-04-24T09:31:09.609Z,99.90
2018-04-24T09:33:37.901Z,99.90
2018-04-24T09:36:05.985Z,99.90
2018-04-24T09:38:34.213Z,99.90
2018-04-24T09:41:02.399Z,99.90
2018-04-24T09:43:30.584Z,99.90
2018-04-24T09:45:58.808Z,99.90
2018-04-24T09:48:26.988Z,99.90
2018-04-24T09:50:55.168Z,99.90
2018-04-24T09:53:23.316Z,99.90
2018-04-24T09:55:51.536Z,99.90
2018-04-24T09:58:19.752Z,99.90
2018-04-24T10:00:47.966Z,99.90
2018-04-24T10:03:16.161Z,99.90
2018-04-24T10:05:44.354Z,99.90
2018-04-24T10:08:12.616Z,99.90
2018-04-24T10:10:40.816Z,99.90
2018-04-24T10:13:09.087Z,99.90
2018-04-24T10:15:37.277Z,99.90
2018-04-24T10:18:05.483Z,99.90
2018-04-24T10:20:33.672Z,99.90
2018-04-24T10:23:01.837Z,99.90
2018-04-24T10:25:30.050Z,99.90
2018-04-24T10:27:58.217Z,99.90
2018-04-24T10:30:26.394Z,99.90
2018-04-24T10:32:54.551Z,99.90
2018-04-24T10:35:22.740Z,99.90
2018-04-24T10:37:50.917Z,99.90
2018-04-24T10:40:19.124Z,99.90
2018-04-24T10:42:47.280Z,99.90
2018-04-24T10:45:15.519Z,99.90
2018-04-24T10:47:43.719Z,99.90
2018-04-24T10:50:12.424Z,99.90
2018-04-24T10:52:40.882Z,99.90
2018-04-24T10:55:09.240Z,99.90
2018-04-24T10:57:37.606Z,99.90
2018-04-24T11:00:05.798Z,99.90
2018-04-24T11:02:34.006Z,99.90
2018-04-24T11:05:02.257Z,99.90
2018-04-24T11:07:30.407Z,99.90
2018-04-24T11:09:58.713Z,99.90
2018-04-24T11:12:26.922Z,99.90
2018-04-24T11:14:55.101Z,99.90
2018-04-24T11:17:23.355Z,99.90
2018-04-24T11:19:51.860Z,99.90
2018-04-24T11:22:20.092Z,99.90
2018-04-24T11:24:48.329Z,99.90
2018-04-24T11:27:16.489Z,99.90
2018-04-24T11:29:44.672Z,99.90
2018-04-24T11:32:12.833Z,99.90
2018-04-24T11:34:41.123Z,99.90
2018-04-24T11:37:09.284Z,99.90
2018-04-24T11:39:38.236Z,99.90
2018-04-24T11:42:06.572Z,99.90
2018-04-24T11:44:34.944Z,99.90
2018-04-24T11:47:03.345Z,99.90
2018-04-24T11:49:31.927Z,99.90
2018-04-24T11:52:01.247Z,99.90
2018-04-24T11:54:29.777Z,99.90
2018-04-24T11:56:58.397Z,99.90
2018-04-24T11:59:26.572Z,99.90
2018-04-24T12:01:54.759Z,99.90
2018-04-24T12:04:23.675Z,99.90
2018-04-24T12:06:51.857Z,99.90
2018-04-24T12:09:20.013Z,99.90
2018-04-24T12:11:48.193Z,99.90
2018-04-24T12:14:16.345Z,99.90
2018-04-24T12:16:45.288Z,99.90
2018-04-24T12:19:13.441Z,99.90
2018-04-24T12:21:41.614Z,99.90
2018-04-24T12:24:09.792Z,99.90
2018-04-24T12:26:38.085Z,99.90
2018-04-24T12:29:06.265Z,99.90
2018-04-24T12:31:34.441Z,99.90
2018-04-24T12:34:02.598Z,99.90
2018-04-24T12:36:30.774Z,99.90
2018-04-24T12:38:58.925Z,99.90
2018-04-24T12:41:27.105Z,99.90
2018-04-24T12:43:55.257Z,99.90
2018-04-24T12:46:23.435Z,99.90
2018-04-24T12:48:51.580Z,99.90
2018-04-24T12:51:19.760Z,99.90
2018-04-24T12:53:47.917Z,99.90
2018-04-24T12:56:16.096Z,99.90
2018-04-24T12:58:44.248Z,99.90
2018-04-24T13:01:12.424Z,99.90
2018-04-24T13:03:40.571Z,99.90
2018-04-24T13:06:08.748Z,99.90
2018-04-24T13:08:36.904Z,99.90
2018-04-24T13:11:05.102Z,99.90
2018-04-24T13:13:33.247Z,99.90
2018-04-24T13:16:01.432Z,99.90
2018-04-24T13:18:29.693Z,99.90
2018-04-24T13:20:57.839Z,99.90
2018-04-24T13:23:26.015Z,99.90
2018-04-24T13:25:54.223Z,99.90
2018-04-24T13:28:22.506Z,99.90
2018-04-24T13:30:50.704Z,99.90
2018-04-24T13:33:18.895Z,99.90
2018-04-24T13:35:47.115Z,99.90
2018-04-24T13:38:15.292Z,99.90
2018-04-24T13:40:43.541Z,99.90
2018-04-24T13:43:11.779Z,99.90
2018-04-24T13:45:39.931Z,99.90
2018-04-24T13:48:08.088Z,99.90
2018-04-24T13:50:36.271Z,99.90
2018-04-24T13:53:04.419Z,99.90
2018-04-24T13:55:33.339Z,99.90
2018-04-24T13:58:01.529Z,99.90
2018-04-24T14:00:29.696Z,99.90
2018-04-24T14:02:57.872Z,99.90
2018-04-24T14:05:26.087Z,99.90
2018-04-24T14:07:54.316Z,99.90
2018-04-24T14:10:22.471Z,99.90
2018-04-24T14:12:51.408Z,99.90
2018-04-24T14:15:19.560Z,99.90
2018-04-24T14:17:47.737Z,99.90
2018-04-24T14:20:15.901Z,99.90
2018-04-24T14:22:44.077Z,99.90
2018-04-24T14:25:12.262Z,99.90
2018-04-24T14:27:40.453Z,99.90
2018-04-24T14:30:08.620Z,99.90
2018-04-24T14:32:36.798Z,99.90
2018-04-24T14:35:04.962Z,99.90
2018-04-24T14:37:33.143Z,99.90
2018-04-24T14:40:01.298Z,99.90
2018-04-24T14:42:29.481Z,99.90
2018-04-24T14:44:57.672Z,99.90
2018-04-24T14:47:25.848Z,99.90
2018-04-24T14:49:54.009Z,99.90
2018-04-24T14:52:22.192Z,99.90
2018-04-24T14:54:50.351Z,99.90
2018-04-24T14:57:18.528Z,99.90
2018-04-24T14:59:46.676Z,99.90
2018-04-24T15:02:14.868Z,99.90
2018-04-24T15:04:43.056Z,99.90
2018-04-24T15:07:11.263Z,99.90
2018-04-24T15:09:39.413Z,99.90
2018-04-24T15:12:07.598Z,99.90
2018-04-24T15:14:35.747Z,99.90
2018-04-24T15:17:03.991Z,99.90
2018-04-24T15:19:32.158Z,99.90
2018-04-24T15:22:01.976Z,99.90
2018-04-24T15:24:30.152Z,99.90
2018-04-24T15:26:58.348Z,99.90
2018-04-24T15:29:29.211Z,99.90
2018-04-24T15:31:57.564Z,99.90
2018-04-24T15:34:25.763Z,99.90
2018-04-24T15:36:54.027Z,99.90
2018-04-24T15:39:22.297Z,99.90
2018-04-24T15:41:50.494Z,99.90
2018-04-24T15:44:18.652Z,99.90
2018-04-24T15:46:46.870Z,99.90
2018-04-24T15:49:15.044Z,99.90
2018-04-24T15:51:43.232Z,99.90
2018-04-24T15:54:12.148Z,99.90
2018-04-24T15:56:40.336Z,99.90
2018-04-24T15:59:08.503Z,99.90
2018-04-24T16:01:36.690Z,99.90
2018-04-24T16:04:04.868Z,99.90
2018-04-24T16:06:33.019Z,99.90
2018-04-24T16:09:01.216Z,99.90
2018-04-24T16:11:29.373Z,99.90
2018-04-24T16:13:57.552Z,99.90
2018-04-24T16:16:25.701Z,99.90
2018-04-24T16:18:53.891Z,99.90
2018-04-24T16:21:22.046Z,99.90
2018-04-24T16:23:50.230Z,99.90
2018-04-24T16:26:18.385Z,99.90
2018-04-24T16:28:47.335Z,99.90
2018-04-24T16:31:15.491Z,99.90
2018-04-24T16:33:43.681Z,99.90
2018-04-24T16:36:11.837Z,99.90
2018-04-24T16:38:40.018Z,99.90
2018-04-24T16:41:08.234Z,99.90
2018-04-24T16:43:36.397Z,99.90
2018-04-24T16:46:05.343Z,99.90
2018-04-24T16:48:33.534Z,99.90
2018-04-24T16:51:01.693Z,99.90
2018-04-24T16:53:29.889Z,99.90
2018-04-24T16:55:58.125Z,99.90
2018-04-24T16:58:33.054Z,99.90
2018-04-24T17:01:06.453Z,99.90
2018-04-24T17:03:34.638Z,99.90
2018-04-24T17:06:02.853Z,99.90
2018-04-24T17:08:31.001Z,99.90
2018-04-24T17:10:59.155Z,99.90
2018-04-24T17:13:27.337Z,99.90
2018-04-24T17:15:55.508Z,99.90
2018-04-24T17:18:23.768Z,99.90
2018-04-24T17:20:51.950Z,99.90
2018-04-24T17:23:20.149Z,99.90
2018-04-24T17:25:48.363Z,99.90
2018-04-24T17:28:16.572Z,99.90
2018-04-24T17:30:44.741Z,99.90
2018-04-24T17:33:12.942Z,99.90
2018-04-24T17:35:41.138Z,99.90
2018-04-24T17:38:09.337Z,99.90
2018-04-24T17:40:38.259Z,99.90
2018-04-24T17:43:06.508Z,99.90
2018-04-24T17:45:34.676Z,99.90
2018-04-24T17:48:02.876Z,99.90
2018-04-24T17:50:31.029Z,99.90
2018-04-24T17:52:59.224Z,99.90
2018-04-24T17:55:27.407Z,99.90
2018-04-24T17:57:55.619Z,99.90
2018-04-24T18:00:23.769Z,99.90
2018-04-24T18:02:51.944Z,99.90
2018-04-24T18:05:20.129Z,99.90
2018-04-24T18:07:48.348Z,99.90
2018-04-24T18:10:17.271Z,99.90
2018-04-24T18:12:45.480Z,99.90
2018-04-24T18:15:13.684Z,99.90
2018-04-24T18:17:41.841Z,99.90
2018-04-24T18:20:10.027Z,99.90
2018-04-24T18:22:38.180Z,99.90
2018-04-24T18:25:06.373Z,99.90
2018-04-24T18:27:34.532Z,99.90
2018-04-24T18:30:02.741Z,99.90
2018-04-24T18:32:30.896Z,99.90
2018-04-24T18:34:59.082Z,99.90
2018-04-24T18:37:27.236Z,99.90
2018-04-24T18:39:55.420Z,99.90
2018-04-24T18:42:23.577Z,99.90
2018-04-24T18:44:51.770Z,99.90
2018-04-24T18:47:20.227Z,99.90
2018-04-24T18:49:48.484Z,99.90
2018-04-24T18:52:16.654Z,99.90
2018-04-24T18:54:44.900Z,99.90
2018-04-24T18:57:13.152Z,99.90
2018-04-24T18:59:42.119Z,99.90
2018-04-24T19:02:10.277Z,99.90
2018-04-24T19:04:38.460Z,99.90
2018-04-24T19:07:06.623Z,99.90
2018-04-24T19:09:34.799Z,99.90
2018-04-24T19:12:02.952Z,99.90
2018-04-24T19:14:31.188Z,99.90
2018-04-24T19:17:00.128Z,99.90
2018-04-24T19:19:28.304Z,99.90
2018-04-24T19:21:56.464Z,99.90
2018-04-24T19:24:30.371Z,99.90
2018-04-24T19:26:58.525Z,99.90
2018-04-24T19:29:26.722Z,99.90
2018-04-24T19:32:00.478Z,99.90
2018-04-24T19:34:28.684Z,99.90
2018-04-24T19:36:56.876Z,99.90
2018-04-24T19:39:30.657Z,99.90
2018-04-24T19:41:59.573Z,99.90
2018-04-24T19:44:27.748Z,99.90
2018-04-24T19:46:55.933Z,99.90
2018-04-24T19:49:29.758Z,99.90
2018-04-24T19:51:58.639Z,99.90
2018-04-24T19:54:26.817Z,99.90
2018-04-24T19:56:55.012Z,99.90
2018-04-24T19:59:23.188Z,99.90
2018-04-24T20:01:51.348Z,99.90
2018-04-24T20:04:19.537Z,99.90
2018-04-24T20:06:47.689Z,99.90
2018-04-24T20:09:15.868Z,99.90
2018-04-24T20:11:44.040Z,99.90
2018-04-24T20:14:12.293Z,99.90
2018-04-24T20:16:40.492Z,99.90
2018-04-24T20:19:08.659Z,99.90
2018-04-24T20:21:36.846Z,99.90
2018-04-24T20:24:05.070Z,99.90
2018-04-24T20:26:33.244Z,99.90
2018-04-24T20:29:01.446Z,99.90
2018-04-24T20:31:29.650Z,99.90
2018-04-24T20:33:57.883Z,99.90
2018-04-24T20:36:26.065Z,99.90
2018-04-24T20:38:54.237Z,99.90
2018-04-24T20:41:22.427Z,99.90
2018-04-24T20:43:50.576Z,99.90
2018-04-24T20:46:18.752Z,99.90
2018-04-24T20:48:46.909Z,99.90
2018-04-24T20:51:15.087Z,99.90
2018-04-24T20:53:43.325Z,99.90
2018-04-24T20:56:11.440Z,99.90
2018-04-24T20:58:39.605Z,99.90
2018-04-24T21:01:07.785Z,99.90
2018-04-24T21:03:35.945Z,99.90
2018-04-24T21:06:04.128Z,99.90
2018-04-24T21:08:32.282Z,99.90
2018-04-24T21:11:01.224Z,99.90
2018-04-24T21:13:29.376Z,99.90
2018-04-24T21:15:57.581Z,99.90
2018-04-24T21:18:26.505Z,99.90
2018-04-24T21:20:54.680Z,99.90
2018-04-24T21:23:22.851Z,99.90
2018-04-24T21:25:51.037Z,99.90
2018-04-24T21:28:19.208Z,99.90
2018-04-24T21:30:47.428Z,99.90
2018-04-24T21:33:15.576Z,99.90
2018-04-24T21:35:43.755Z,99.90
2018-04-24T21:38:11.908Z,99.90
2018-04-24T21:40:40.847Z,99.90
2018-04-24T21:43:09.011Z,99.90
2018-04-24T21:45:37.188Z,99.90
2018-04-24T21:48:05.344Z,99.90
2018-04-24T21:50:33.524Z,99.90
2018-04-24T21:53:01.690Z,99.90
2018-04-24T21:55:29.872Z,99.90
2018-04-24T21:57:58.028Z,99.90
2018-04-24T22:00:26.973Z,99.90
2018-04-24T22:02:55.125Z,99.90
2018-04-24T22:05:23.302Z,99.90
2018-04-24T22:07:51.451Z,99.90
2018-04-24T22:10:19.633Z,99.90
2018-04-24T22:12:47.786Z,99.90
2018-04-24T22:15:15.964Z,99.90
2018-04-24T22:17:44.121Z,99.90
2018-04-24T22:20:12.296Z,99.90
2018-04-24T22:22:41.212Z,99.90
2018-04-24T22:25:09.388Z,99.90
2018-04-24T22:27:37.540Z,99.90
2018-04-24T22:30:05.696Z,99.90
2018-04-24T22:32:33.882Z,99.90
2018-04-24T22:35:02.039Z,99.90
2018-04-24T22:37:30.221Z,99.90
2018-04-24T22:39:58.445Z,99.90
2018-04-24T22:42:26.580Z,99.90
2018-04-24T22:44:54.734Z,99.90
2018-04-24T22:47:23.704Z,99.90
2018-04-24T22:49:51.867Z,99.90
2018-04-24T22:52:20.135Z,99.90
2018-04-24T22:54:48.245Z,99.90
2018-04-24T22:57:16.420Z,99.90
2018-04-24T22:59:44.581Z,99.90
2018-04-24T23:02:12.753Z,99.90
2018-04-24T23:04:40.912Z,99.90
2018-04-24T23:07:09.102Z,99.90
2018-04-24T23:09:37.265Z,99.90
2018-04-24T23:12:17.337Z,99.90
2018-04-24T23:14:57.214Z,99.90
2018-04-24T23:17:37.089Z,99.90
2018-04-24T23:20:16.681Z,99.90
2018-04-24T23:22:44.869Z,99.90
2018-04-24T23:25:13.021Z,99.90
2018-04-24T23:27:41.211Z,99.90
2018-04-24T23:30:09.377Z,99.90
2018-04-24T23:32:37.561Z,99.90
2018-04-24T23:35:05.721Z,99.90
2018-04-24T23:37:33.901Z,99.90
2018-04-24T23:40:02.055Z,99.90
2018-04-24T23:42:30.232Z,99.90
2018-04-24T23:44:58.393Z,99.90
2018-04-24T23:47:26.569Z,99.90
2018-04-24T23:49:54.729Z,99.90
2018-04-24T23:52:22.903Z,99.90
2018-04-24T23:54:51.051Z,99.90
2018-04-24T23:57:19.237Z,99.90
2018-04-24T23:59:47.392Z,99.90
